ADDS TAF Board (Experimental) INFO Settings
IDs: Format: Expanded Condensed

KSAN - San Diego Intl Arpt, CA, US

Issued at 1423 UTC 29 Aug 2015
Updated at: 1435 UTC 29 Aug 2015
Time1351Z 29/15Z 29/16Z 29/17Z 29/18Z 29/19Z 29/20Z 29/21Z 29/22Z 29/23Z 30/00Z 30/01Z 30/02Z 30/03Z
Type OBS PRVL PRVL PRVL PRVL PRVL PRVL PRVL PRVL PRVL PRVL PRVL PRVL PRVL
VIS 10 >6 >6 >6 >6 >6 >6 >6 >6 >6 >6 >6 >6 >6
CIG -- -- -- -- -- -- -- -- -- -- -- -- -- --
Cover FEW FEW FEW FEW FEW FEW FEW FEW FEW FEW FEW FEW SCT SCT
FltCat VFR VFR VFR VFR VFR VFR VFR VFR VFR VFR VFR VFR VFR VFR
WX -- -- -- -- -- -- -- -- -- -- -- -- -- --
WDir VRB VRB VRB VRB VRB VRB 290 290 290 290 290 290 VRB VRB
WSpd 0 5 5 5 5 5 11 11 11 11 11 11 5 5
WGst -- -- -- -- -- -- -- -- -- -- -- -- -- --
R09/27
XWnd VRB VRB VRB VRB VRB VRB 1 1 1 1 1 1 VRB VRB
HWnd VRB VRB VRB VRB VRB VRB -11 -11 -11 -11 -11 -11 VRB VRB

NOTE: TEMPO conditions in [brackets]. Keep in mind TEMPO conditions might be better (lower impact) than prevailing conditions.

Raw TAF
KSAN 291423Z 2914/3018 VRB05KT P6SM FEW007
  FM292000 29011KT P6SM FEW010
  FM300200 VRB05KT P6SM SCT010
  FM300800 VRB04KT P6SM OVC010
  FM301600 VRB05KT P6SM SCT012


Raw METAR
KSAN 291351Z 00000KT 10SM FEW007 23/21 A2988 RMK AO2 SLP119 T02330206
KSAN 291306Z 00000KT 10SM FEW007 23/21 A2988 RMK AO2
KSAN 291251Z 00000KT 10SM CLR 23/20 A2987 RMK AO2 SLP114 T02330200
KSAN 291151Z 34003KT 10SM CLR 23/20 A2986 RMK AO2 SLP112 T02330200 10250 20233 56004

METAR Board
Radar Display
Forecast Discussion

TAF Board Legend

Potential Impact
Threat None Slight Moderate High
Visibility (sm) ≥5.1 5.1>X≥3 3>X≥1 <1
Ceiling (100 ft) ≥30.1 30.1>X≥10 10>X≥5 <5
Wind Speed (kt) <10 10≤X<20 20≤X<30 ≥30
Wind Gust (kt) <15 15≤X<25 25≤X<35 ≥35
Weather No Wx Reported VCTS,-TS,-FZRA,SN TS,FZRA +TS,+FZRA,+SN